Terminal Aerodrome Forecast
Issued by NWS Corpus Christi, TX

Home | Current Version | Previous Version | Text Only | Print | Product List | Glossary On
Versions: 1 2 3 4 5 6 7 8 9 10 11 12 13 14 15 16
000
FTUS44 KCRP 190500
TAFCRP
TAF
KCRP 190524Z 1906/2006 16008KT P6SM VCSH FEW009 OVC025
      TEMPO 1908/1910 3SM -RA BR OVC009
     FM191000 16008KT 4SM -RA BR OVC012
      TEMPO 1910/1914 2SM SHRA OVC007
     FM191400 01008KT 3SM -RA BR VCTS OVC008CB
      TEMPO 1914/1918 2SM SHRA OVC015
     FM191800 36012KT P6SM OVC020=

USA.gov is the U.S. government's official web portal to all federal, state and local government web resources and services.